Time;durP1;ratioP1;P1;durP2;ratioP2;P2;SDS_P1;SDS_P2;PMS_P1;PMS_P2;Temp;Humidity;BMP_temperature;BMP_pressure;BME280_temperature;BME280_humidity;BME280_pressure;Samples;Min_cycle;Max_cycle;Signal;HPM_P1;HPM_P2
2021/10/21 00:00:16;;;;;;;6.50;5.90;;;;;;;13.05;58.85;98350.95;477256;1189;141697;-67
2021/10/21 00:10:22;;;;;;;8.60;7.00;;;;;;;12.93;59.13;98336.13;477829;1190;140751;-66
2021/10/21 00:20:28;;;;;;;7.50;6.10;;;;;;;12.92;59.27;98334.30;476127;1190;140915;-65
2021/10/21 00:30:34;;;;;;;7.70;6.70;;;;;;;12.84;59.49;98309.52;461493;1191;140894;-65
2021/10/21 00:40:40;;;;;;;7.40;6.70;;;;;;;12.75;59.60;98292.16;461354;1190;140973;-66
2021/10/21 00:50:46;;;;;;;7.30;5.80;;;;;;;12.64;59.87;98302.13;476042;1184;140746;-66
2021/10/21 01:00:52;;;;;;;6.20;5.60;;;;;;;12.57;60.12;98287.31;471284;1190;140694;-66
2021/10/21 01:11:00;;;;;;;10.90;6.90;;;;;;;12.58;60.34;98262.95;478295;1189;140651;-66
2021/10/21 01:21:06;;;;;;;6.00;5.30;;;;;;;12.63;60.39;98249.70;475907;1189;141543;-67
2021/10/21 01:31:12;;;;;;;8.00;6.30;;;;;;;12.68;60.41;98240.98;467647;1190;141725;-65
2021/10/21 01:41:18;;;;;;;6.20;5.50;;;;;;;12.67;60.38;98229.31;463679;1190;142812;-66
2021/10/21 01:51:24;;;;;;;8.70;5.40;;;;;;;12.46;60.60;98216.65;466406;1189;141102;-66
2021/10/21 02:01:30;;;;;;;7.00;6.10;;;;;;;12.26;60.93;98203.98;475264;1189;142559;-66
2021/10/21 02:11:36;;;;;;;6.70;6.00;;;;;;;12.18;61.27;98172.92;477610;1189;142075;-66
2021/10/21 02:21:43;;;;;;;7.30;5.70;;;;;;;12.12;61.62;98156.12;478274;1189;145703;-66
2021/10/21 02:31:49;;;;;;;6.60;5.90;;;;;;;12.10;61.78;98141.80;478306;1189;141458;-66
2021/10/21 02:41:55;;;;;;;10.40;5.60;;;;;;;12.19;61.96;98134.26;467824;1189;141428;-66
2021/10/21 02:52:01;;;;;;;7.70;6.30;;;;;;;12.21;62.06;98119.37;471608;1190;145021;-66
2021/10/21 03:02:06;;;;;;;7.30;6.50;;;;;;;12.26;62.20;98094.86;478367;1189;141125;-67
2021/10/21 03:12:13;;;;;;;8.20;6.60;;;;;;;12.41;62.27;98082.76;476913;1190;144260;-66
2021/10/21 03:22:19;;;;;;;6.80;6.10;;;;;;;12.60;62.13;98065.36;477753;1190;142546;-66
2021/10/21 03:32:25;;;;;;;10.40;6.90;;;;;;;12.68;61.92;98063.52;477327;1189;142272;-66
2021/10/21 03:42:30;;;;;;;8.90;6.60;;;;;;;12.49;62.07;98053.00;477870;1190;142170;-66
2021/10/21 03:52:37;;;;;;;7.80;6.30;;;;;;;12.26;62.51;98024.83;477814;1190;143992;-66
2021/10/21 04:02:43;;;;;;;9.50;8.10;;;;;;;12.24;62.78;98010.85;476912;1190;141071;-66
2021/10/21 04:12:49;;;;;;;8.20;6.60;;;;;;;12.33;62.88;98002.30;478243;1189;142618;-65
2021/10/21 04:22:55;;;;;;;8.10;7.00;;;;;;;12.42;62.87;97977.64;474785;1189;140899;-65
2021/10/21 04:33:01;;;;;;;6.30;5.70;;;;;;;12.45;62.80;97950.36;462066;1190;143914;-67
2021/10/21 04:43:07;;;;;;;6.80;6.20;;;;;;;12.30;62.94;97939.90;478207;1189;145051;-67
2021/10/21 04:53:13;;;;;;;6.70;5.80;;;;;;;12.25;63.29;97935.17;478229;1190;140532;-68
2021/10/21 05:03:19;;;;;;;8.40;6.50;;;;;;;12.38;63.21;97906.35;478065;1189;141644;-68
2021/10/21 05:13:25;;;;;;;7.10;6.00;;;;;;;12.46;63.28;97903.95;477958;1190;142090;-68
2021/10/21 05:23:31;;;;;;;8.40;7.00;;;;;;;12.56;63.12;97889.64;476987;1190;142272;-67
2021/10/21 05:33:37;;;;;;;6.70;6.00;;;;;;;12.72;63.05;97872.22;477871;1190;140554;-68
2021/10/21 05:43:43;;;;;;;8.90;7.20;;;;;;;12.89;62.86;97860.20;471420;1190;141744;-67
2021/10/21 05:53:49;;;;;;;8.80;7.60;;;;;;;13.10;62.66;97854.06;477120;1190;141391;-67
2021/10/21 06:03:55;;;;;;;8.00;6.80;;;;;;;13.35;62.27;97882.96;477868;1190;140834;-67
2021/10/21 06:14:01;;;;;;;10.70;9.40;;;;;;;13.44;61.98;97898.02;477875;1190;142380;-67
2021/10/21 06:24:08;;;;;;;10.30;8.20;;;;;;;13.26;63.24;97896.36;477104;1190;141171;-67
2021/10/21 06:34:15;;;;;;;10.80;9.70;;;;;;;12.98;64.16;97885.95;477838;1190;141991;-68
2021/10/21 06:44:20;;;;;;;10.30;9.30;;;;;;;12.86;64.49;97885.80;477053;1190;140807;-65
2021/10/21 06:54:26;;;;;;;10.70;9.20;;;;;;;12.78;64.97;97905.20;477720;1190;142588;-65
2021/10/21 07:04:32;;;;;;;10.30;9.40;;;;;;;12.71;65.41;97882.54;477703;1190;142901;-62
2021/10/21 07:14:58;;;;;;;15.20;10.60;;;;;;;12.65;65.92;97849.05;476994;1190;141144;-59
2021/10/21 07:25:06;;;;;;;12.00;10.70;;;;;;;12.66;65.90;97828.98;477755;1190;141561;-67
2021/10/21 07:35:12;;;;;;;10.60;9.50;;;;;;;12.91;65.83;97840.52;461807;1190;20003482;-64
2021/10/21 07:45:18;;;;;;;11.80;9.40;;;;;;;13.04;65.58;97838.54;476908;1190;142434;-65
2021/10/21 07:55:24;;;;;;;11.00;9.80;;;;;;;13.13;65.27;97832.33;477684;1190;141583;-64
2021/10/21 08:05:31;;;;;;;11.00;9.50;;;;;;;13.23;65.28;97840.09;476897;1189;141625;-63
2021/10/21 08:15:38;;;;;;;13.90;10.30;;;;;;;13.34;65.52;97843.67;469177;1190;141184;-63
2021/10/21 08:25:44;;;;;;;10.90;9.70;;;;;;;13.30;66.04;97830.42;477661;1189;142876;-67
2021/10/21 08:35:50;;;;;;;11.30;10.10;;;;;;;13.28;66.33;97805.70;477092;1189;182639;-67
2021/10/21 08:45:56;;;;;;;12.40;10.10;;;;;;;13.28;66.40;97750.29;465725;1189;142405;-65
2021/10/21 08:56:04;;;;;;;13.30;11.70;;;;;;;13.60;66.40;97747.41;466313;1189;141376;-63
2021/10/21 09:06:24;;;;;;;12.80;11.50;;;;;;;13.65;66.36;97728.89;475409;1189;141939;-63
2021/10/21 09:16:31;;;;;;;11.90;10.60;;;;;;;13.75;66.34;97692.46;478009;1189;141269;-67
2021/10/21 09:27:09;;;;;;;12.30;10.20;;;;;;;14.12;66.19;97691.88;473377;1189;141730;-62
2021/10/21 09:37:17;;;;;;;12.00;9.80;;;;;;;14.70;65.45;97679.25;461570;1189;141807;-63
2021/10/21 09:47:23;;;;;;;11.70;10.60;;;;;;;14.98;64.86;97657.17;467926;1189;141738;-64
2021/10/21 09:57:32;;;;;;;11.80;9.90;;;;;;;15.07;64.44;97632.20;462794;1189;141734;-61
2021/10/21 10:07:38;;;;;;;10.20;9.30;;;;;;;15.00;64.31;97593.50;461274;1189;142209;-63
2021/10/21 10:17:44;;;;;;;11.10;9.10;;;;;;;14.98;64.29;97579.57;461426;1189;145813;-62
2021/10/21 10:28:04;;;;;;;8.90;7.60;;;;;;;14.93;64.23;97586.28;471952;1190;141582;-63
2021/10/21 10:38:11;;;;;;;8.00;7.20;;;;;;;14.88;64.12;97571.15;477791;1189;142497;-62
2021/10/21 10:48:38;;;;;;;8.00;6.50;;;;;;;15.03;63.58;97539.45;475812;1189;140401;-69
2021/10/21 10:58:44;;;;;;;8.60;7.10;;;;;;;15.10;63.15;97529.03;470214;1189;141623;-62
2021/10/21 11:09:02;;;;;;;6.50;5.70;;;;;;;15.04;63.01;97534.37;460526;1190;141247;-61
2021/10/21 11:19:09;;;;;;;9.60;6.20;;;;;;;14.96;62.99;97532.59;477322;1189;141042;-65
2021/10/21 11:29:19;;;;;;;5.00;4.50;;;;;;;14.97;62.63;97521.73;467485;1189;141358;-71
2021/10/21 11:39:33;;;;;;;6.20;5.20;;;;;;;15.00;61.95;97509.84;467368;1189;141448;-67
2021/10/21 11:49:39;;;;;;;5.40;4.60;;;;;;;14.92;61.70;97499.23;463750;1189;142176;-68
2021/10/21 11:59:45;;;;;;;5.50;4.60;;;;;;;14.88;61.33;97509.26;475396;1189;140917;-67
2021/10/21 12:09:51;;;;;;;6.50;5.40;;;;;;;14.96;60.89;97510.09;471890;1190;140944;-69
2021/10/21 12:19:57;;;;;;;7.30;6.60;;;;;;;15.21;60.56;97485.73;469291;1189;140915;-65
2021/10/21 12:30:06;;;;;;;5.80;5.20;;;;;;;15.69;59.99;97491.54;460488;1189;140138;-54
2021/10/21 12:40:19;;;;;;;6.20;5.60;;;;;;;16.15;59.03;97490.74;472056;1189;140873;-55
2021/10/21 12:50:27;;;;;;;7.30;5.90;;;;;;;16.46;58.00;97491.98;474837;1189;142106;-58
2021/10/21 13:00:35;;;;;;;5.20;4.50;;;;;;;16.65;57.00;97492.66;472317;1189;140304;-58
2021/10/21 13:10:51;;;;;;;3.20;3.00;;;;;;;16.79;56.29;97502.77;475012;1189;140402;-58
2021/10/21 13:20:58;;;;;;;11.10;3.20;;;;;;;16.80;54.53;97512.58;452622;1182;20001863;-57
2021/10/21 13:31:04;;;;;;;9.40;1.80;;;;;;;16.70;52.78;97523.48;475131;1189;141314;-56
2021/10/21 13:41:09;;;;;;;11.40;1.70;;;;;;;16.66;48.32;97526.45;475126;1189;141156;-57
2021/10/21 13:51:15;;;;;;;15.00;1.50;;;;;;;16.56;47.71;97536.30;464755;1189;140653;-60
2021/10/21 14:01:24;;;;;;;9.30;1.80;;;;;;;16.43;47.37;97557.23;469783;1189;140420;-57
2021/10/21 14:11:32;;;;;;;22.10;1.80;;;;;;;16.48;46.69;97580.15;470114;1189;140602;-57
2021/10/21 14:21:38;;;;;;;12.50;2.20;;;;;;;16.41;46.54;97601.16;469376;1189;140979;-56
2021/10/21 14:31:45;;;;;;;10.50;1.30;;;;;;;16.26;45.76;97637.04;461247;1190;141677;-57
2021/10/21 14:41:51;;;;;;;26.50;2.10;;;;;;;16.14;45.56;97670.84;466178;1185;141407;-56
2021/10/21 14:51:57;;;;;;;12.00;1.30;;;;;;;15.92;46.15;97705.64;469341;1189;144825;-57
2021/10/21 15:02:03;;;;;;;15.80;2.20;;;;;;;15.58;46.92;97734.98;471891;1189;141820;-55
2021/10/21 15:22:36;;;;;;;17.20;2.20;;;;;;;14.76;48.32;97829.88;462715;1190;141509;-56
2021/10/21 15:32:44;;;;;;;10.60;1.20;;;;;;;14.25;49.39;97839.35;477619;1189;160842;-58
2021/10/21 15:42:49;;;;;;;20.60;2.20;;;;;;;13.92;50.39;97881.74;464953;1190;141032;-56
2021/10/21 16:13:43;;;;;;;15.50;2.00;;;;;;;12.72;51.60;97987.23;469339;1190;141842;-56
2021/10/21 16:23:53;;;;;;;18.90;2.20;;;;;;;12.25;51.96;98007.38;468505;1189;145166;-56
2021/10/21 16:34:03;;;;;;;8.30;1.20;;;;;;;11.84;52.39;98048.04;463897;1189;140884;-56
2021/10/21 16:44:09;;;;;;;15.20;2.60;;;;;;;11.73;52.80;98062.23;470608;1189;143111;-57
2021/10/21 16:54:15;;;;;;;8.00;1.60;;;;;;;11.62;53.18;98074.79;476220;1189;141604;-57
2021/10/21 17:04:21;;;;;;;8.80;1.10;;;;;;;11.57;54.12;98098.94;462292;1189;141345;-56
2021/10/21 17:14:27;;;;;;;9.00;1.10;;;;;;;11.68;54.14;98108.73;460954;1190;141092;-59
2021/10/21 17:24:33;;;;;;;8.70;1.00;;;;;;;11.50;53.98;98131.27;462339;1190;141510;-55
2021/10/21 17:34:40;;;;;;;4.80;1.60;;;;;;;11.19;54.15;98135.56;478156;1189;141464;-64
2021/10/21 17:44:46;;;;;;;4.90;1.10;;;;;;;10.95;54.16;98151.73;477590;1189;140946;-63
2021/10/21 17:54:52;;;;;;;2.90;0.70;;;;;;;10.77;54.07;98154.20;474201;1189;140334;-61
2021/10/21 18:04:58;;;;;;;3.80;1.40;;;;;;;10.59;53.76;98153.64;464294;1174;141224;-61
2021/10/21 18:15:05;;;;;;;3.70;1.60;;;;;;;10.36;53.80;98157.66;465310;1189;142406;-61
2021/10/21 18:25:11;;;;;;;3.60;0.80;;;;;;;10.19;54.11;98160.67;469136;1189;141336;-63
2021/10/21 18:35:18;;;;;;;5.40;1.00;;;;;;;10.00;54.57;98162.48;470374;1189;141695;-68
2021/10/21 18:45:25;;;;;;;5.50;1.60;;;;;;;9.79;55.34;98158.79;468970;1189;141890;-60
2021/10/21 18:55:31;;;;;;;4.10;1.40;;;;;;;9.65;56.04;98155.02;478097;1189;140697;-61
2021/10/21 19:05:37;;;;;;;2.90;1.10;;;;;;;9.54;56.88;98159.42;471479;1189;140069;-60
2021/10/21 19:15:43;;;;;;;4.70;1.90;;;;;;;9.57;56.97;98161.27;466256;1189;141165;-61
2021/10/21 19:25:49;;;;;;;2.70;1.30;;;;;;;9.44;57.19;98165.49;469089;1189;141743;-60
2021/10/21 19:35:55;;;;;;;3.40;2.10;;;;;;;9.33;57.33;98175.61;461218;1189;140091;-56
2021/10/21 19:46:02;;;;;;;4.20;2.00;;;;;;;9.37;57.31;98179.70;466819;1189;140819;-60
2021/10/21 19:56:09;;;;;;;4.80;1.60;;;;;;;9.33;57.28;98180.55;471930;1177;140043;-59
2021/10/21 20:06:15;;;;;;;5.00;2.10;;;;;;;9.29;57.37;98185.39;474494;1189;143526;-61
2021/10/21 20:16:22;;;;;;;3.00;1.60;;;;;;;9.15;57.64;98170.64;467210;1189;139606;-61
2021/10/21 20:26:30;;;;;;;1.90;1.20;;;;;;;9.12;58.10;98168.43;468696;1189;141420;-59
2021/10/21 20:36:36;;;;;;;4.40;1.50;;;;;;;9.16;58.31;98175.11;476642;1189;139600;-60
2021/10/21 20:46:41;;;;;;;2.10;1.40;;;;;;;9.11;58.80;98174.94;475027;1190;140702;-61
2021/10/21 20:56:47;;;;;;;3.00;1.70;;;;;;;9.17;58.93;98170.95;465631;1190;141346;-59
2021/10/21 21:06:54;;;;;;;1.80;1.30;;;;;;;9.17;58.88;98167.30;463552;1190;140181;-60
2021/10/21 21:17:00;;;;;;;2.30;1.60;;;;;;;9.07;58.70;98168.82;472223;1190;140805;-60
2021/10/21 21:27:07;;;;;;;2.30;0.90;;;;;;;9.04;58.59;98168.91;459485;1190;140268;-64
2021/10/21 21:37:12;;;;;;;2.20;1.40;;;;;;;9.05;58.49;98168.65;464125;1190;139692;-66
2021/10/21 21:47:20;;;;;;;4.90;1.50;;;;;;;9.23;58.03;98175.54;477903;1190;179587;-67
2021/10/21 21:57:27;;;;;;;2.20;1.40;;;;;;;9.12;57.54;98179.55;475327;1189;139862;-67
2021/10/21 22:07:33;;;;;;;2.30;1.20;;;;;;;9.08;57.57;98185.83;466152;1190;139803;-67
2021/10/21 22:17:39;;;;;;;2.30;1.00;;;;;;;9.19;57.19;98202.92;468995;1190;140432;-62
2021/10/21 22:27:47;;;;;;;1.70;0.70;;;;;;;9.33;56.84;98213.00;468769;1190;140605;-61
2021/10/21 22:37:54;;;;;;;2.80;0.80;;;;;;;9.61;56.28;98227.71;466572;1190;140513;-61
2021/10/21 22:48:01;;;;;;;1.00;0.70;;;;;;;9.84;56.02;98234.52;472067;1190;141233;-61
2021/10/21 22:58:07;;;;;;;3.10;1.00;;;;;;;10.00;55.52;98240.25;463255;1190;139947;-61
2021/10/21 23:08:14;;;;;;;5.10;0.80;;;;;;;10.09;55.29;98271.83;469341;1190;182215;-61
2021/10/21 23:18:21;;;;;;;5.80;0.70;;;;;;;10.09;55.51;98293.52;470637;1190;144413;-61
2021/10/21 23:28:27;;;;;;;3.90;0.90;;;;;;;9.99;56.09;98311.31;470569;1190;140747;-60
2021/10/21 23:38:34;;;;;;;6.70;1.20;;;;;;;9.80;56.48;98322.59;472527;1190;139630;-60
2021/10/21 23:48:40;;;;;;;4.90;0.70;;;;;;;9.67;57.15;98339.74;472420;1190;139946;-60
2021/10/21 23:58:47;;;;;;;3.10;0.80;;;;;;;9.47;58.85;98377.64;476221;1190;141352;-61
